sensor_id;sensor_type;location;lat;lon;timestamp;pressure;altitude;pressure_sealevel;temperature;humidity
28701;BME280;15877;52.344;16.790;2022-12-18T00:01:35;102293.59;;;-0.18;65.83
28701;BME280;15877;52.344;16.790;2022-12-18T00:04:15;102290.05;;;-0.40;66.20
28701;BME280;15877;52.344;16.790;2022-12-18T00:06:50;102286.93;;;-0.18;65.68
28701;BME280;15877;52.344;16.790;2022-12-18T00:09:22;102293.36;;;-0.22;65.38
28701;BME280;15877;52.344;16.790;2022-12-18T00:12:00;102304.52;;;-0.27;65.40
28701;BME280;15877;52.344;16.790;2022-12-18T00:14:48;102309.70;;;-0.15;65.04
28701;BME280;15877;52.344;16.790;2022-12-18T00:17:20;102306.99;;;-0.20;64.67
28701;BME280;15877;52.344;16.790;2022-12-18T00:19:52;102304.80;;;-0.44;64.86
28701;BME280;15877;52.344;16.790;2022-12-18T00:22:24;102311.89;;;-0.43;65.24
28701;BME280;15877;52.344;16.790;2022-12-18T00:24:56;102310.48;;;-0.51;65.27
28701;BME280;15877;52.344;16.790;2022-12-18T00:27:28;102307.53;;;-0.36;64.92
28701;BME280;15877;52.344;16.790;2022-12-18T00:30:00;102313.29;;;-0.29;64.84
28701;BME280;15877;52.344;16.790;2022-12-18T00:32:33;102313.20;;;-0.31;64.71
28701;BME280;15877;52.344;16.790;2022-12-18T00:35:07;102299.39;;;-0.43;64.72
28701;BME280;15877;52.344;16.790;2022-12-18T00:37:40;102318.52;;;-0.29;64.68
28701;BME280;15877;52.344;16.790;2022-12-18T00:40:13;102326.52;;;-0.25;64.56
28701;BME280;15877;52.344;16.790;2022-12-18T00:42:46;102328.87;;;-0.37;64.69
28701;BME280;15877;52.344;16.790;2022-12-18T00:45:29;102335.60;;;-0.48;64.93
28701;BME280;15877;52.344;16.790;2022-12-18T00:48:02;102343.30;;;-0.30;64.59
28701;BME280;15877;52.344;16.790;2022-12-18T00:50:35;102341.23;;;-0.33;64.28
28701;BME280;15877;52.344;16.790;2022-12-18T00:53:07;102349.33;;;-0.47;64.52
28701;BME280;15877;52.344;16.790;2022-12-18T00:55:43;102347.48;;;-0.51;64.55
28701;BME280;15877;52.344;16.790;2022-12-18T00:58:16;102334.96;;;-0.51;64.29
28701;BME280;15877;52.344;16.790;2022-12-18T01:00:48;102325.41;;;-0.53;63.71
28701;BME280;15877;52.344;16.790;2022-12-18T01:03:20;102364.40;;;-0.36;63.53
28701;BME280;15877;52.344;16.790;2022-12-18T01:05:53;102367.63;;;-0.52;64.00
28701;BME280;15877;52.344;16.790;2022-12-18T01:08:26;102366.39;;;-0.54;64.31
28701;BME280;15877;52.344;16.790;2022-12-18T01:10:58;102370.12;;;-0.45;64.09
28701;BME280;15877;52.344;16.790;2022-12-18T01:13:30;102370.92;;;-0.43;63.96
28701;BME280;15877;52.344;16.790;2022-12-18T01:16:03;102369.27;;;-0.44;63.88
28701;BME280;15877;52.344;16.790;2022-12-18T01:18:38;102373.84;;;-0.39;63.66
28701;BME280;15877;52.344;16.790;2022-12-18T01:21:12;102375.21;;;-0.44;63.58
28701;BME280;15877;52.344;16.790;2022-12-18T01:23:44;102375.48;;;-0.58;63.92
28701;BME280;15877;52.344;16.790;2022-12-18T01:26:17;102381.15;;;-0.58;63.94
28701;BME280;15877;52.344;16.790;2022-12-18T01:28:49;102377.50;;;-0.66;64.08
28701;BME280;15877;52.344;16.790;2022-12-18T01:31:25;102378.55;;;-0.69;63.71
28701;BME280;15877;52.344;16.790;2022-12-18T01:33:59;102385.72;;;-0.71;63.91
28701;BME280;15877;52.344;16.790;2022-12-18T01:36:33;102357.07;;;-0.83;63.46
28701;BME280;15877;52.344;16.790;2022-12-18T01:39:09;102390.55;;;-0.67;63.62
28701;BME280;15877;52.344;16.790;2022-12-18T01:41:45;102397.64;;;-0.67;63.42
28701;BME280;15877;52.344;16.790;2022-12-18T01:44:56;102399.71;;;-0.83;63.58
28701;BME280;15877;52.344;16.790;2022-12-18T01:47:33;102383.05;;;-0.78;63.79
28701;BME280;15877;52.344;16.790;2022-12-18T01:50:09;102386.14;;;-0.76;63.86
28701;BME280;15877;52.344;16.790;2022-12-18T01:52:43;102384.02;;;-0.70;63.60
28701;BME280;15877;52.344;16.790;2022-12-18T01:55:19;102390.77;;;-0.58;63.29
28701;BME280;15877;52.344;16.790;2022-12-18T01:57:54;102393.61;;;-0.69;63.66
28701;BME280;15877;52.344;16.790;2022-12-18T02:00:28;102401.98;;;-0.65;63.95
28701;BME280;15877;52.344;16.790;2022-12-18T02:03:00;102398.94;;;-0.65;63.79
28701;BME280;15877;52.344;16.790;2022-12-18T02:05:43;102401.70;;;-0.66;63.79
28701;BME280;15877;52.344;16.790;2022-12-18T02:08:20;102403.13;;;-0.60;63.65
28701;BME280;15877;52.344;16.790;2022-12-18T02:11:00;102405.23;;;-0.61;63.81
28701;BME280;15877;52.344;16.790;2022-12-18T02:13:43;102410.42;;;-0.72;64.11
28701;BME280;15877;52.344;16.790;2022-12-18T02:16:23;102411.25;;;-0.69;64.23
28701;BME280;15877;52.344;16.790;2022-12-18T02:18:59;102418.67;;;-0.66;64.02
28701;BME280;15877;52.344;16.790;2022-12-18T02:21:38;102420.36;;;-0.71;64.21
28701;BME280;15877;52.344;16.790;2022-12-18T02:24:22;102418.38;;;-0.67;64.26
28701;BME280;15877;52.344;16.790;2022-12-18T02:26:59;102422.53;;;-0.64;64.19
28701;BME280;15877;52.344;16.790;2022-12-18T02:29:36;102424.40;;;-0.58;63.97
28701;BME280;15877;52.344;16.790;2022-12-18T02:32:14;102426.23;;;-0.60;63.97
28701;BME280;15877;52.344;16.790;2022-12-18T02:34:47;102431.48;;;-0.82;64.45
28701;BME280;15877;52.344;16.790;2022-12-18T02:37:22;102414.79;;;-1.02;64.72
28701;BME280;15877;52.344;16.790;2022-12-18T02:39:57;102432.95;;;-0.87;64.95
28701;BME280;15877;52.344;16.790;2022-12-18T02:42:30;102430.08;;;-0.94;65.03
28701;BME280;15877;52.344;16.790;2022-12-18T02:45:05;102429.21;;;-0.81;64.90
28701;BME280;15877;52.344;16.790;2022-12-18T02:47:40;102425.64;;;-0.87;64.98
28701;BME280;15877;52.344;16.790;2022-12-18T02:50:22;102425.39;;;-0.79;65.00
28701;BME280;15877;52.344;16.790;2022-12-18T02:53:09;102423.27;;;-0.96;65.19
28701;BME280;15877;52.344;16.790;2022-12-18T02:55:51;102425.66;;;-0.91;64.97
28701;BME280;15877;52.344;16.790;2022-12-18T02:58:32;102424.76;;;-0.78;64.54
28701;BME280;15877;52.344;16.790;2022-12-18T03:01:15;102431.17;;;-0.84;64.53
28701;BME280;15877;52.344;16.790;2022-12-18T03:03:52;102433.54;;;-0.85;64.74
28701;BME280;15877;52.344;16.790;2022-12-18T03:06:32;102432.94;;;-0.76;64.35
28701;BME280;15877;52.344;16.790;2022-12-18T03:09:09;102434.73;;;-0.88;64.81
28701;BME280;15877;52.344;16.790;2022-12-18T03:11:46;102436.09;;;-0.74;64.79
28701;BME280;15877;52.344;16.790;2022-12-18T03:14:39;102439.02;;;-0.65;64.29
28701;BME280;15877;52.344;16.790;2022-12-18T03:17:16;102439.07;;;-0.74;64.45
28701;BME280;15877;52.344;16.790;2022-12-18T03:19:50;102444.55;;;-0.86;64.84
28701;BME280;15877;52.344;16.790;2022-12-18T03:22:25;102451.86;;;-0.86;64.78
28701;BME280;15877;52.344;16.790;2022-12-18T03:25:01;102449.39;;;-0.99;64.80
28701;BME280;15877;52.344;16.790;2022-12-18T03:27:38;102450.18;;;-1.07;65.27
28701;BME280;15877;52.344;16.790;2022-12-18T03:30:15;102430.20;;;-1.03;65.02
28701;BME280;15877;52.344;16.790;2022-12-18T03:32:50;102440.56;;;-0.94;64.74
28701;BME280;15877;52.344;16.790;2022-12-18T03:35:32;102453.38;;;-1.03;65.00
28701;BME280;15877;52.344;16.790;2022-12-18T03:38:06;102452.06;;;-1.22;65.55
28701;BME280;15877;52.344;16.790;2022-12-18T03:40:46;102453.83;;;-1.33;66.39
28701;BME280;15877;52.344;16.790;2022-12-18T03:43:31;102457.92;;;-1.07;65.79
28701;BME280;15877;52.344;16.790;2022-12-18T03:46:10;102455.11;;;-1.02;65.55
28701;BME280;15877;52.344;16.790;2022-12-18T03:48:48;102452.95;;;-0.96;65.36
28701;BME280;15877;52.344;16.790;2022-12-18T03:51:28;102451.36;;;-1.06;65.58
28701;BME280;15877;52.344;16.790;2022-12-18T03:54:08;102454.56;;;-1.02;65.66
28701;BME280;15877;52.344;16.790;2022-12-18T03:56:48;102458.14;;;-0.98;65.43
28701;BME280;15877;52.344;16.790;2022-12-18T03:59:25;102457.33;;;-0.97;65.38
28701;BME280;15877;52.344;16.790;2022-12-18T04:02:00;102462.61;;;-0.91;65.44
28701;BME280;15877;52.344;16.790;2022-12-18T04:04:34;102463.63;;;-0.80;65.04
28701;BME280;15877;52.344;16.790;2022-12-18T04:07:08;102465.14;;;-0.76;64.87
28701;BME280;15877;52.344;16.790;2022-12-18T04:09:43;102471.23;;;-0.67;64.81
28701;BME280;15877;52.344;16.790;2022-12-18T04:12:18;102470.27;;;-0.63;64.71
28701;BME280;15877;52.344;16.790;2022-12-18T04:14:50;102469.06;;;-0.66;64.69
28701;BME280;15877;52.344;16.790;2022-12-18T04:17:23;102440.38;;;-0.80;64.55
28701;BME280;15877;52.344;16.790;2022-12-18T04:19:56;102466.17;;;-0.71;64.66
28701;BME280;15877;52.344;16.790;2022-12-18T04:22:28;102464.33;;;-0.65;64.63
28701;BME280;15877;52.344;16.790;2022-12-18T04:25:02;102469.95;;;-0.70;64.84
28701;BME280;15877;52.344;16.790;2022-12-18T04:27:39;102475.98;;;-0.66;64.77
28701;BME280;15877;52.344;16.790;2022-12-18T04:30:12;102476.27;;;-0.58;64.64
28701;BME280;15877;52.344;16.790;2022-12-18T04:32:46;102483.80;;;-0.48;64.26
28701;BME280;15877;52.344;16.790;2022-12-18T04:35:23;102478.91;;;-0.63;64.72
28701;BME280;15877;52.344;16.790;2022-12-18T04:37:55;102495.20;;;-0.67;64.76
28701;BME280;15877;52.344;16.790;2022-12-18T04:40:27;102498.92;;;-0.71;65.00
28701;BME280;15877;52.344;16.790;2022-12-18T04:43:00;102497.23;;;-0.61;64.92
28701;BME280;15877;52.344;16.790;2022-12-18T04:45:33;102498.33;;;-0.56;64.84
28701;BME280;15877;52.344;16.790;2022-12-18T04:48:06;102501.00;;;-0.51;64.76
28701;BME280;15877;52.344;16.790;2022-12-18T04:50:38;102503.27;;;-0.52;64.49
28701;BME280;15877;52.344;16.790;2022-12-18T04:53:11;102504.98;;;-0.54;64.56
28701;BME280;15877;52.344;16.790;2022-12-18T04:55:43;102509.27;;;-0.52;64.58
28701;BME280;15877;52.344;16.790;2022-12-18T04:58:16;102513.23;;;-0.49;64.38
28701;BME280;15877;52.344;16.790;2022-12-18T05:00:48;102516.73;;;-0.56;64.41
28701;BME280;15877;52.344;16.790;2022-12-18T05:03:21;102519.79;;;-0.70;64.79
28701;BME280;15877;52.344;16.790;2022-12-18T05:05:53;102522.48;;;-0.72;65.08
28701;BME280;15877;52.344;16.790;2022-12-18T05:08:26;102530.75;;;-0.64;64.79
28701;BME280;15877;52.344;16.790;2022-12-18T05:11:02;102534.20;;;-0.56;64.47
28701;BME280;15877;52.344;16.790;2022-12-18T05:13:35;102525.86;;;-0.60;64.57
28701;BME280;15877;52.344;16.790;2022-12-18T05:16:10;102527.90;;;-0.57;64.53
28701;BME280;15877;52.344;16.790;2022-12-18T05:18:42;102528.27;;;-0.59;64.48
28701;BME280;15877;52.344;16.790;2022-12-18T05:21:15;102527.23;;;-0.65;64.57
28701;BME280;15877;52.344;16.790;2022-12-18T05:23:47;102535.16;;;-0.62;64.52
28701;BME280;15877;52.344;16.790;2022-12-18T05:26:20;102535.43;;;-0.62;64.55
28701;BME280;15877;52.344;16.790;2022-12-18T05:28:52;102537.11;;;-0.67;64.62
28701;BME280;15877;52.344;16.790;2022-12-18T05:31:24;102545.61;;;-0.59;64.59
28701;BME280;15877;52.344;16.790;2022-12-18T05:33:57;102549.16;;;-0.65;64.57
28701;BME280;15877;52.344;16.790;2022-12-18T05:36:29;102549.64;;;-0.68;64.65
28701;BME280;15877;52.344;16.790;2022-12-18T05:39:02;102551.59;;;-0.64;64.45
28701;BME280;15877;52.344;16.790;2022-12-18T05:41:35;102562.98;;;-0.65;64.50
28701;BME280;15877;52.344;16.790;2022-12-18T05:44:08;102564.98;;;-0.64;64.59
28701;BME280;15877;52.344;16.790;2022-12-18T05:46:43;102569.80;;;-0.77;64.56
28701;BME280;15877;52.344;16.790;2022-12-18T05:49:15;102574.30;;;-0.87;64.65
28701;BME280;15877;52.344;16.790;2022-12-18T05:51:47;102580.20;;;-0.78;64.56
28701;BME280;15877;52.344;16.790;2022-12-18T05:54:19;102576.13;;;-0.72;64.25
28701;BME280;15877;52.344;16.790;2022-12-18T05:56:52;102575.21;;;-0.74;64.43
28701;BME280;15877;52.344;16.790;2022-12-18T05:59:25;102580.73;;;-0.87;64.70
28701;BME280;15877;52.344;16.790;2022-12-18T06:01:57;102587.10;;;-0.82;64.69
28701;BME280;15877;52.344;16.790;2022-12-18T06:04:29;102593.14;;;-0.74;64.52
28701;BME280;15877;52.344;16.790;2022-12-18T06:07:01;102597.43;;;-0.90;65.03
28701;BME280;15877;52.344;16.790;2022-12-18T06:09:35;102603.30;;;-0.87;65.02
28701;BME280;15877;52.344;16.790;2022-12-18T06:12:08;102605.68;;;-0.85;64.77
28701;BME280;15877;52.344;16.790;2022-12-18T06:14:40;102610.02;;;-0.82;64.78
28701;BME280;15877;52.344;16.790;2022-12-18T06:17:12;102596.44;;;-0.90;64.77
28701;BME280;15877;52.344;16.790;2022-12-18T06:19:44;102622.44;;;-0.72;64.50
28701;BME280;15877;52.344;16.790;2022-12-18T06:22:16;102617.53;;;-0.67;64.46
28701;BME280;15877;52.344;16.790;2022-12-18T06:24:49;102613.58;;;-0.74;64.60
28701;BME280;15877;52.344;16.790;2022-12-18T06:27:21;102615.14;;;-0.76;64.76
28701;BME280;15877;52.344;16.790;2022-12-18T06:29:54;102616.20;;;-0.85;64.79
28701;BME280;15877;52.344;16.790;2022-12-18T06:32:26;102616.66;;;-1.10;65.58
28701;BME280;15877;52.344;16.790;2022-12-18T06:34:58;102601.63;;;-1.12;65.35
28701;BME280;15877;52.344;16.790;2022-12-18T06:37:32;102615.20;;;-0.93;65.05
28701;BME280;15877;52.344;16.790;2022-12-18T06:40:05;102618.01;;;-0.90;64.77
28701;BME280;15877;52.344;16.790;2022-12-18T06:42:37;102616.52;;;-0.99;64.99
28701;BME280;15877;52.344;16.790;2022-12-18T06:45:11;102616.70;;;-1.02;65.11
28701;BME280;15877;52.344;16.790;2022-12-18T06:47:42;102618.45;;;-0.94;65.04
28701;BME280;15877;52.344;16.790;2022-12-18T06:50:16;102622.23;;;-1.06;65.43
28701;BME280;15877;52.344;16.790;2022-12-18T06:52:48;102621.95;;;-0.98;65.31
28701;BME280;15877;52.344;16.790;2022-12-18T06:55:21;102619.57;;;-0.93;65.13
28701;BME280;15877;52.344;16.790;2022-12-18T06:57:53;102625.41;;;-1.01;65.48
28701;BME280;15877;52.344;16.790;2022-12-18T07:00:25;102612.48;;;-1.12;65.52
28701;BME280;15877;52.344;16.790;2022-12-18T07:02:57;102634.13;;;-0.91;65.25
28701;BME280;15877;52.344;16.790;2022-12-18T07:05:30;102636.70;;;-0.95;65.43
28701;BME280;15877;52.344;16.790;2022-12-18T07:08:02;102647.62;;;-0.86;65.35
28701;BME280;15877;52.344;16.790;2022-12-18T07:10:34;102657.61;;;-0.75;65.14
28701;BME280;15877;52.344;16.790;2022-12-18T07:13:18;102640.27;;;-0.98;65.38
28701;BME280;15877;52.344;16.790;2022-12-18T07:15:50;102653.73;;;-1.14;66.39
28701;BME280;15877;52.344;16.790;2022-12-18T07:18:22;102655.41;;;-1.01;66.13
28701;BME280;15877;52.344;16.790;2022-12-18T07:20:55;102651.85;;;-0.87;65.90
28701;BME280;15877;52.344;16.790;2022-12-18T07:23:27;102656.04;;;-0.94;66.18
28701;BME280;15877;52.344;16.790;2022-12-18T07:26:03;102658.82;;;-0.98;66.28
28701;BME280;15877;52.344;16.790;2022-12-18T07:28:37;102662.44;;;-0.91;66.31
28701;BME280;15877;52.344;16.790;2022-12-18T07:31:11;102662.94;;;-0.83;66.11
28701;BME280;15877;52.344;16.790;2022-12-18T07:33:44;102663.66;;;-0.88;66.30
28701;BME280;15877;52.344;16.790;2022-12-18T07:36:17;102674.34;;;-0.91;66.43
28701;BME280;15877;52.344;16.790;2022-12-18T07:38:50;102679.09;;;-0.95;66.49
28701;BME280;15877;52.344;16.790;2022-12-18T07:41:23;102682.86;;;-1.03;66.59
28701;BME280;15877;52.344;16.790;2022-12-18T07:43:55;102694.52;;;-0.94;66.46
28701;BME280;15877;52.344;16.790;2022-12-18T07:46:27;102695.27;;;-0.90;66.42
28701;BME280;15877;52.344;16.790;2022-12-18T07:49:00;102704.17;;;-0.88;66.40
28701;BME280;15877;52.344;16.790;2022-12-18T07:51:32;102705.41;;;-1.01;66.67
28701;BME280;15877;52.344;16.790;2022-12-18T07:54:04;102708.19;;;-0.82;66.25
28701;BME280;15877;52.344;16.790;2022-12-18T07:56:36;102711.97;;;-0.87;66.52
28701;BME280;15877;52.344;16.790;2022-12-18T07:59:09;102718.36;;;-0.86;66.67
28701;BME280;15877;52.344;16.790;2022-12-18T08:01:41;102724.95;;;-0.80;66.48
28701;BME280;15877;52.344;16.790;2022-12-18T08:04:14;102726.94;;;-0.76;66.28
28701;BME280;15877;52.344;16.790;2022-12-18T08:06:46;102729.98;;;-0.61;66.02
28701;BME280;15877;52.344;16.790;2022-12-18T08:09:18;102732.56;;;-0.65;66.21
28701;BME280;15877;52.344;16.790;2022-12-18T08:11:50;102732.43;;;-0.54;66.11
28701;BME280;15877;52.344;16.790;2022-12-18T08:14:23;102735.67;;;-0.59;66.19
28701;BME280;15877;52.344;16.790;2022-12-18T08:16:56;102727.29;;;-0.53;65.95
28701;BME280;15877;52.344;16.790;2022-12-18T08:19:28;102719.40;;;-0.63;66.00
28701;BME280;15877;52.344;16.790;2022-12-18T08:22:01;102738.35;;;-0.48;65.92
28701;BME280;15877;52.344;16.790;2022-12-18T08:24:33;102736.80;;;-0.54;66.27
28701;BME280;15877;52.344;16.790;2022-12-18T08:27:05;102727.94;;;-0.52;66.37
28701;BME280;15877;52.344;16.790;2022-12-18T08:29:58;102726.38;;;-0.49;66.25
28701;BME280;15877;52.344;16.790;2022-12-18T08:32:31;102732.74;;;-0.60;67.03
28701;BME280;15877;52.344;16.790;2022-12-18T08:35:05;102726.21;;;-0.46;66.81
28701;BME280;15877;52.344;16.790;2022-12-18T08:37:39;102730.74;;;-0.33;66.49
28701;BME280;15877;52.344;16.790;2022-12-18T08:40:13;102729.02;;;-0.32;66.64
28701;BME280;15877;52.344;16.790;2022-12-18T08:42:48;102711.17;;;-0.36;66.48
28701;BME280;15877;52.344;16.790;2022-12-18T08:45:38;102726.30;;;-0.27;66.56
28701;BME280;15877;52.344;16.790;2022-12-18T08:48:11;102721.93;;;-0.27;66.62
28701;BME280;15877;52.344;16.790;2022-12-18T08:50:56;102725.44;;;-0.18;66.65
28701;BME280;15877;52.344;16.790;2022-12-18T08:53:29;102719.98;;;-0.09;66.26
28701;BME280;15877;52.344;16.790;2022-12-18T08:56:07;102717.09;;;-0.04;66.08
28701;BME280;15877;52.344;16.790;2022-12-18T08:58:39;102710.35;;;-0.12;66.53
28701;BME280;15877;52.344;16.790;2022-12-18T09:01:12;102698.77;;;-0.04;66.55
28701;BME280;15877;52.344;16.790;2022-12-18T09:03:45;102693.70;;;-0.10;66.51
28701;BME280;15877;52.344;16.790;2022-12-18T09:06:19;102691.11;;;-0.06;66.35
28701;BME280;15877;52.344;16.790;2022-12-18T09:08:51;102690.86;;;-0.10;66.57
28701;BME280;15877;52.344;16.790;2022-12-18T09:11:25;102691.79;;;-0.13;66.70
28701;BME280;15877;52.344;16.790;2022-12-18T09:13:59;102696.80;;;-0.11;66.91
28701;BME280;15877;52.344;16.790;2022-12-18T09:16:32;102695.19;;;-0.10;66.96
28701;BME280;15877;52.344;16.790;2022-12-18T09:19:06;102692.11;;;-0.01;66.76
28701;BME280;15877;52.344;16.790;2022-12-18T09:21:38;102697.48;;;-0.05;66.78
28701;BME280;15877;52.344;16.790;2022-12-18T09:24:18;102693.02;;;-0.09;67.18
28701;BME280;15877;52.344;16.790;2022-12-18T09:26:55;102695.43;;;0.06;66.93
28701;BME280;15877;52.344;16.790;2022-12-18T09:29:28;102699.29;;;0.15;67.00
28701;BME280;15877;52.344;16.790;2022-12-18T09:32:00;102700.13;;;0.20;67.09
28701;BME280;15877;52.344;16.790;2022-12-18T09:34:33;102711.82;;;0.18;66.92
28701;BME280;15877;52.344;16.790;2022-12-18T09:37:05;102711.27;;;0.25;66.64
28701;BME280;15877;52.344;16.790;2022-12-18T09:39:37;102717.64;;;0.34;66.74
28701;BME280;15877;52.344;16.790;2022-12-18T09:42:17;102694.02;;;0.21;66.37
28701;BME280;15877;52.344;16.790;2022-12-18T09:44:53;102718.55;;;0.36;66.57
28701;BME280;15877;52.344;16.790;2022-12-18T09:47:28;102718.34;;;0.34;66.72
28701;BME280;15877;52.344;16.790;2022-12-18T09:50:04;102718.26;;;0.42;66.44
28701;BME280;15877;52.344;16.790;2022-12-18T09:52:47;102715.66;;;0.46;66.30
28701;BME280;15877;52.344;16.790;2022-12-18T09:55:25;102716.80;;;0.53;66.30
28701;BME280;15877;52.344;16.790;2022-12-18T09:58:13;102714.58;;;0.54;66.32
28701;BME280;15877;52.344;16.790;2022-12-18T10:00:49;102717.21;;;0.54;66.19
28701;BME280;15877;52.344;16.790;2022-12-18T10:03:23;102711.48;;;0.48;66.53
28701;BME280;15877;52.344;16.790;2022-12-18T10:06:02;102708.70;;;0.40;66.81
28701;BME280;15877;52.344;16.790;2022-12-18T10:08:42;102688.65;;;0.36;66.63
28701;BME280;15877;52.344;16.790;2022-12-18T10:11:26;102701.69;;;0.55;66.52
28701;BME280;15877;52.344;16.790;2022-12-18T10:14:08;102704.05;;;1.60;78.97
28701;BME280;15877;52.344;16.790;2022-12-18T10:16:50;102704.44;;;1.09;71.93
28701;BME280;15877;52.344;16.790;2022-12-18T10:19:34;102711.32;;;0.91;68.02
28701;BME280;15877;52.344;16.790;2022-12-18T10:22:21;102713.05;;;0.89;67.03
28701;BME280;15877;52.344;16.790;2022-12-18T10:25:01;102724.78;;;0.80;67.11
28701;BME280;15877;52.344;16.790;2022-12-18T10:27:36;102716.09;;;0.96;66.76
28701;BME280;15877;52.344;16.790;2022-12-18T10:30:15;102712.77;;;0.90;66.55
28701;BME280;15877;52.344;16.790;2022-12-18T10:32:47;102713.96;;;0.88;66.73
28701;BME280;15877;52.344;16.790;2022-12-18T10:35:23;102717.23;;;0.90;66.69
28701;BME280;15877;52.344;16.790;2022-12-18T10:38:04;102700.18;;;0.75;66.66
28701;BME280;15877;52.344;16.790;2022-12-18T10:40:50;102724.73;;;0.67;67.06
28701;BME280;15877;52.344;16.790;2022-12-18T10:43:25;102731.33;;;0.81;67.07
28701;BME280;15877;52.344;16.790;2022-12-18T10:46:11;102728.56;;;0.88;66.94
28701;BME280;15877;52.344;16.790;2022-12-18T10:48:54;102725.08;;;0.84;66.81
28701;BME280;15877;52.344;16.790;2022-12-18T10:51:29;102721.29;;;0.80;67.08
28701;BME280;15877;52.344;16.790;2022-12-18T10:54:04;102720.27;;;0.84;66.87
28701;BME280;15877;52.344;16.790;2022-12-18T10:56:37;102721.45;;;0.80;66.98
28701;BME280;15877;52.344;16.790;2022-12-18T10:59:12;102718.83;;;0.83;67.03
28701;BME280;15877;52.344;16.790;2022-12-18T11:01:48;102716.41;;;0.83;67.10
28701;BME280;15877;52.344;16.790;2022-12-18T11:04:24;102713.71;;;0.87;66.78
28701;BME280;15877;52.344;16.790;2022-12-18T11:06:59;102703.28;;;0.91;66.85
28701;BME280;15877;52.344;16.790;2022-12-18T11:09:34;102699.08;;;0.94;66.69
28701;BME280;15877;52.344;16.790;2022-12-18T11:12:17;102682.94;;;0.84;66.49
28701;BME280;15877;52.344;16.790;2022-12-18T11:14:51;102703.33;;;0.96;66.21
28701;BME280;15877;52.344;16.790;2022-12-18T11:17:30;102706.76;;;0.90;66.00
28701;BME280;15877;52.344;16.790;2022-12-18T11:20:06;102707.00;;;0.86;65.86
28701;BME280;15877;52.344;16.790;2022-12-18T11:22:40;102708.05;;;0.86;66.36
28701;BME280;15877;52.344;16.790;2022-12-18T11:25:20;102701.08;;;0.97;65.96
28701;BME280;15877;52.344;16.790;2022-12-18T11:28:06;102694.50;;;0.96;65.88
28701;BME280;15877;52.344;16.790;2022-12-18T11:31:11;102687.55;;;0.93;65.86
28701;BME280;15877;52.344;16.790;2022-12-18T11:33:48;102692.20;;;0.87;65.95
28701;BME280;15877;52.344;16.790;2022-12-18T11:36:45;102694.88;;;0.64;66.55
28701;BME280;15877;52.344;16.790;2022-12-18T11:39:22;102666.96;;;0.45;66.78
28701;BME280;15877;52.344;16.790;2022-12-18T11:42:00;102692.42;;;0.62;66.82
28701;BME280;15877;52.344;16.790;2022-12-18T11:44:48;102697.23;;;0.58;66.81
28701;BME280;15877;52.344;16.790;2022-12-18T11:47:26;102701.35;;;0.79;67.10
28701;BME280;15877;52.344;16.790;2022-12-18T11:50:05;102698.27;;;0.90;66.72
28701;BME280;15877;52.344;16.790;2022-12-18T11:52:43;102698.95;;;0.99;66.58
28701;BME280;15877;52.344;16.790;2022-12-18T11:55:18;102702.77;;;1.05;66.12
28701;BME280;15877;52.344;16.790;2022-12-18T11:57:57;102707.63;;;1.01;66.13
28701;BME280;15877;52.344;16.790;2022-12-18T12:00:33;102709.45;;;1.04;66.18
28701;BME280;15877;52.344;16.790;2022-12-18T12:03:18;102712.73;;;1.08;66.03
28701;BME280;15877;52.344;16.790;2022-12-18T12:06:01;102708.82;;;1.09;65.65
28701;BME280;15877;52.344;16.790;2022-12-18T12:08:44;102704.54;;;1.14;65.34
28701;BME280;15877;52.344;16.790;2022-12-18T12:11:26;102712.67;;;1.13;65.44
28701;BME280;15877;52.344;16.790;2022-12-18T12:14:15;102712.38;;;1.09;65.19
28701;BME280;15877;52.344;16.790;2022-12-18T12:16:57;102717.71;;;1.11;64.91
28701;BME280;15877;52.344;16.790;2022-12-18T12:19:38;102720.08;;;1.07;65.23
28701;BME280;15877;52.344;16.790;2022-12-18T12:22:20;102721.56;;;1.12;65.01
28701;BME280;15877;52.344;16.790;2022-12-18T12:25:04;102720.52;;;0.96;64.96
28701;BME280;15877;52.344;16.790;2022-12-18T12:27:43;102722.48;;;0.91;64.98
28701;BME280;15877;52.344;16.790;2022-12-18T12:30:21;102730.81;;;0.83;65.61
28701;BME280;15877;52.344;16.790;2022-12-18T12:33:08;102730.16;;;1.00;65.77
28701;BME280;15877;52.344;16.790;2022-12-18T12:35:49;102730.89;;;1.26;68.27
28701;BME280;15877;52.344;16.790;2022-12-18T12:38:27;102729.60;;;1.38;70.81
28701;BME280;15877;52.344;16.790;2022-12-18T12:41:01;102727.07;;;1.28;66.67
28701;BME280;15877;52.344;16.790;2022-12-18T12:43:35;102729.55;;;1.35;65.59
28701;BME280;15877;52.344;16.790;2022-12-18T12:46:21;102727.65;;;1.24;64.84
28701;BME280;15877;52.344;16.790;2022-12-18T12:48:57;102730.95;;;1.21;64.42
28701;BME280;15877;52.344;16.790;2022-12-18T12:51:33;102727.84;;;1.07;64.17
28701;BME280;15877;52.344;16.790;2022-12-18T12:54:11;102708.48;;;0.94;64.76
28701;BME280;15877;52.344;16.790;2022-12-18T12:56:48;102722.05;;;1.13;64.65
28701;BME280;15877;52.344;16.790;2022-12-18T12:59:30;102683.40;;;0.88;64.49
28701;BME280;15877;52.344;16.790;2022-12-18T13:02:14;102710.22;;;1.17;64.43
28701;BME280;15877;52.344;16.790;2022-12-18T13:04:52;102710.45;;;1.17;64.42
28701;BME280;15877;52.344;16.790;2022-12-18T13:07:30;102711.17;;;1.15;64.46
28701;BME280;15877;52.344;16.790;2022-12-18T13:10:35;102704.84;;;0.96;64.69
28701;BME280;15877;52.344;16.790;2022-12-18T13:13:10;102705.79;;;1.02;64.72
28701;BME280;15877;52.344;16.790;2022-12-18T13:15:48;102706.29;;;1.12;64.67
28701;BME280;15877;52.344;16.790;2022-12-18T13:18:22;102714.59;;;1.10;64.57
28701;BME280;15877;52.344;16.790;2022-12-18T13:21:04;102713.02;;;1.11;64.80
28701;BME280;15877;52.344;16.790;2022-12-18T13:23:41;102714.61;;;1.00;64.95
28701;BME280;15877;52.344;16.790;2022-12-18T13:26:32;102722.49;;;0.94;64.98
28701;BME280;15877;52.344;16.790;2022-12-18T13:29:05;102725.52;;;0.98;64.24